Airfield :







YOU CAN JOIN US ON...

 
LOGIN :

Register | Disclaimer

   EN    FR    IT 

 









Legend :    VFR   Marginal VFR   IFR   Intensive IFR   Very Intensive IFR
Visi :
Ceiling :
>= 8 km
>= 3000ft
5 to 8 km
1000 to 3000 ft
1500m to 5 km
500 to 1000 ft
800 to 1500m
200 to 500 ft
< 800m
< 200 ft
Symbols :   Thunderstorms  Fog  Heavy snow  Heavy precipitations  Wind > 20 kt







- Airport Elevation : 586 ft
- IATA code : YRJ


CYRJ - Roberval

CURRENT METAR :
  • 162227Z 29010G16KT 25SM FEW022 BKN046 BKN072 BKN090 12/10 A3005 RMK SC1SC4AC1AC1 SLP181

EXPIRED METARs :
  • 162200Z 31012G20KT 25SM -SHRA FEW021 BKN052 BKN074 13/10 A3004 RMK SC2SC3AC2 CVCTV CLD EMBD SLP179
  • 162154Z 33014G19KT 290V350 12SM -SHRA FEW021 BKN052 OVC074 14/10 A3004 RMK SC2SC4AC2 CVCTV CLD EMBD SLP178
  • 162100Z 29009G16KT 280V350 25SM SCT040 BKN052 BKN064 BKN078 14/10 A3002 RMK SC3SC2CU1AC1 AC TR SLP171 DENSITY ALT 600FT
  • 162000Z 32012G19KT 25SM BKN043 BKN064 BKN078 15/09 A3002 RMK SC5CU1AC1 SLP170 DENSITY ALT 600FT

TAF TAF CYRJ
Valid from the 16 at 20:00 until the 17 at 02:00 UTC


161938Z 1620/1702 31010G20KT P6SM BKN050 RMK NXT FCST WILL BE ISSUED AT 171145Z
No reported NOTAMs for that airfield.



MET'MAP, your aeronautical weather chart ! - Copyright ORBIFLY December 2007 - Disclaimer

ORBIFLY MET'MAP TEAM :

Programming & Development : Alexandra Zaïnal
Concept & Development : Baudouin d'Aumeries
Co-Development & Prog : Marc-Olivier Méhu
Technical & hardware support : Manuel Goepfert

Contact : metmap@orbifly.com




SOURCES & CREDITS :

   NOAA